createdAt,value
2018-06-13T00:01:42.301Z,99909.83
2018-06-13T00:04:45.211Z,99914.72
2018-06-13T00:07:48.137Z,99919.02
2018-06-13T00:10:51.043Z,99922.45
2018-06-13T00:13:53.951Z,99920.97
2018-06-13T00:16:56.889Z,99920.73
2018-06-13T00:19:59.831Z,99927.44
2018-06-13T00:23:02.768Z,99920.28
2018-06-13T00:26:05.750Z,99922.09
2018-06-13T00:29:19.566Z,99924.29
2018-06-13T00:32:25.557Z,99924.50
2018-06-13T00:35:28.467Z,99917.20
2018-06-13T00:38:32.114Z,99922.17
2018-06-13T00:41:34.990Z,99926.91
2018-06-13T00:44:37.929Z,99933.25
2018-06-13T00:47:40.840Z,99935.31
2018-06-13T00:50:43.837Z,99933.02
2018-06-13T00:53:46.734Z,99935.38
2018-06-13T00:56:49.641Z,99926.89
2018-06-13T00:59:52.532Z,99934.67
2018-06-13T01:02:55.467Z,99935.86
2018-06-13T01:05:58.370Z,99938.38
2018-06-13T01:09:01.315Z,99939.07
2018-06-13T01:12:04.262Z,99937.73
2018-06-13T01:15:07.197Z,99929.39
2018-06-13T01:18:10.105Z,99938.20
2018-06-13T01:21:13.025Z,99940.56
2018-06-13T01:24:15.925Z,99939.30
2018-06-13T01:27:18.876Z,99941.04
2018-06-13T01:30:22.798Z,99939.78
2018-06-13T01:33:25.778Z,99945.49
2018-06-13T01:36:34.180Z,99946.61
2018-06-13T01:39:52.395Z,99945.53
2018-06-13T01:42:56.226Z,99945.35
2018-06-13T01:46:04.934Z,99944.08
2018-06-13T01:49:07.844Z,99947.27
2018-06-13T01:52:10.748Z,99780.25
2018-06-13T01:55:13.744Z,99937.58
2018-06-13T01:58:16.673Z,99932.12
2018-06-13T02:01:19.629Z,99934.03
2018-06-13T02:04:24.018Z,99935.66
2018-06-13T02:07:26.955Z,99939.70
2018-06-13T02:10:34.385Z,99942.06
2018-06-13T02:13:47.517Z,99944.41
2018-06-13T02:16:52.837Z,99943.14
2018-06-13T02:19:55.962Z,99934.90
2018-06-13T02:22:59.274Z,99936.85
2018-06-13T02:26:08.965Z,99937.03
2018-06-13T02:29:13.436Z,99935.69
2018-06-13T02:32:16.354Z,99938.91
2018-06-13T02:35:19.350Z,99938.84
2018-06-13T02:38:22.254Z,99945.20
2018-06-13T02:41:25.190Z,99950.16
2018-06-13T02:44:28.107Z,99949.12
2018-06-13T02:47:31.034Z,99949.69
2018-06-13T02:50:33.941Z,99949.47
2018-06-13T02:53:36.839Z,99945.83
2018-06-13T02:56:39.681Z,99920.45
2018-06-13T02:59:43.048Z,99943.07
2018-06-13T03:02:52.134Z,99943.87
2018-06-13T03:06:10.444Z,99947.31
2018-06-13T03:09:13.566Z,99946.08
2018-06-13T03:12:16.493Z,99952.84
2018-06-13T03:15:19.465Z,99952.69
2018-06-13T03:18:22.367Z,99950.85
2018-06-13T03:21:25.288Z,99947.34
2018-06-13T03:24:28.188Z,99951.56
2018-06-13T03:27:31.082Z,99954.78
2018-06-13T03:30:34.029Z,99958.66
2018-06-13T03:33:36.941Z,99954.78
2018-06-13T03:36:39.857Z,99960.23
2018-06-13T03:39:42.776Z,99971.09
2018-06-13T03:42:45.686Z,99970.70
2018-06-13T03:45:57.453Z,99966.76
2018-06-13T03:49:00.468Z,99969.50
2018-06-13T03:52:03.485Z,99974.46
2018-06-13T03:55:06.444Z,99970.77
2018-06-13T03:58:09.375Z,99972.83
2018-06-13T04:01:12.242Z,99970.86
2018-06-13T04:04:15.121Z,99973.70
2018-06-13T04:07:18.326Z,99972.37
2018-06-13T04:10:21.204Z,99966.92
2018-06-13T04:13:24.130Z,99970.15
2018-06-13T04:16:27.054Z,99973.98
2018-06-13T04:19:30.021Z,99975.75
2018-06-13T04:22:32.894Z,99969.93
2018-06-13T04:25:35.817Z,99971.09
2018-06-13T04:28:38.699Z,99969.83
2018-06-13T04:31:41.615Z,99962.42
2018-06-13T04:34:44.528Z,99968.48
2018-06-13T04:37:47.487Z,99964.63
2018-06-13T04:40:50.410Z,99969.04
2018-06-13T04:43:53.352Z,99972.04
2018-06-13T04:46:56.204Z,99965.82
2018-06-13T04:49:59.107Z,99972.91
2018-06-13T04:53:02.006Z,99970.70
2018-06-13T04:56:05.185Z,99976.42
2018-06-13T04:59:08.092Z,99978.05
2018-06-13T05:02:11.009Z,99973.16
2018-06-13T05:05:13.901Z,99975.84
2018-06-13T05:08:16.824Z,99973.05
2018-06-13T05:11:19.736Z,99976.67
2018-06-13T05:14:22.652Z,99978.19
2018-06-13T05:17:25.533Z,99970.63
2018-06-13T05:20:28.454Z,99974.50
2018-06-13T05:23:31.357Z,99974.25
2018-06-13T05:26:34.283Z,99976.13
2018-06-13T05:29:37.183Z,99974.65
2018-06-13T05:32:40.113Z,99976.75
2018-06-13T05:35:43.020Z,99978.81
2018-06-13T05:38:45.949Z,99989.27
2018-06-13T05:41:48.883Z,99989.09
2018-06-13T05:44:51.812Z,99997.40
2018-06-13T05:47:54.706Z,99993.44
2018-06-13T05:50:57.653Z,99994.77
2018-06-13T05:54:00.569Z,100001.47
2018-06-13T05:57:10.247Z,100008.38
2018-06-13T06:00:13.194Z,100008.12
2018-06-13T06:03:16.108Z,100013.27
2018-06-13T06:06:18.992Z,100008.99
2018-06-13T06:09:21.898Z,100013.48
2018-06-13T06:12:24.806Z,100008.52
2018-06-13T06:15:27.745Z,100020.39
2018-06-13T06:18:30.676Z,100012.36
2018-06-13T06:21:33.573Z,100017.83
2018-06-13T06:24:36.478Z,100018.77
2018-06-13T06:27:39.424Z,100017.31
2018-06-13T06:30:42.334Z,100012.25
2018-06-13T06:33:45.269Z,100015.48
2018-06-13T06:36:48.268Z,100021.03
2018-06-13T06:39:51.202Z,100025.05
2018-06-13T06:42:54.111Z,100024.45
2018-06-13T06:45:57.037Z,100027.89
2018-06-13T06:48:59.940Z,100026.17
2018-06-13T06:52:02.896Z,100013.09
2018-06-13T06:55:05.913Z,100013.30
2018-06-13T06:58:08.821Z,100018.27
2018-06-13T07:01:11.707Z,100027.96
2018-06-13T07:04:14.641Z,100032.72
2018-06-13T07:07:17.553Z,100042.26
2018-06-13T07:10:20.447Z,100035.29
2018-06-13T07:13:23.409Z,100039.46
2018-06-13T07:16:26.433Z,100033.20
2018-06-13T07:19:29.401Z,100038.42
2018-06-13T07:22:32.342Z,100036.64
2018-06-13T07:25:35.242Z,100039.58
2018-06-13T07:28:38.145Z,100040.77
2018-06-13T07:31:41.064Z,100043.63
2018-06-13T07:34:43.985Z,100041.05
2018-06-13T07:37:47.792Z,100040.89
2018-06-13T07:40:50.788Z,100046.28
2018-06-13T07:43:53.678Z,100049.09
2018-06-13T07:46:56.597Z,100049.95
2018-06-13T07:49:59.581Z,100049.28
2018-06-13T07:53:02.657Z,100046.27
2018-06-13T07:56:05.661Z,100049.33
2018-06-13T07:59:08.566Z,100052.98
2018-06-13T08:02:11.505Z,100051.83
2018-06-13T08:05:14.425Z,100048.33
2018-06-13T08:08:17.388Z,100047.52
2018-06-13T08:11:20.306Z,100053.02
2018-06-13T08:14:23.207Z,100056.84
2018-06-13T08:17:26.112Z,100055.70
2018-06-13T08:20:29.023Z,99979.50
2018-06-13T08:23:31.948Z,100068.25
2018-06-13T08:26:34.832Z,100070.07
2018-06-13T08:29:37.739Z,100068.13
2018-06-13T08:32:40.651Z,100082.44
2018-06-13T08:35:43.573Z,100071.16
2018-06-13T08:38:46.476Z,100078.63
2018-06-13T08:41:49.452Z,100080.77
2018-06-13T08:44:52.356Z,100075.97
2018-06-13T08:47:55.277Z,100072.11
2018-06-13T08:50:58.528Z,100071.88
2018-06-13T08:54:01.443Z,100076.83
2018-06-13T08:57:04.491Z,100078.11
2018-06-13T09:00:07.487Z,100079.98
2018-06-13T09:03:10.455Z,100080.11
2018-06-13T09:06:13.388Z,100080.55
2018-06-13T09:09:16.309Z,100079.50
2018-06-13T09:12:19.481Z,100083.33
2018-06-13T09:15:22.388Z,100085.95
2018-06-13T09:18:25.327Z,100083.40
2018-06-13T09:21:34.925Z,100090.09
2018-06-13T09:24:37.863Z,100090.74
2018-06-13T09:27:40.769Z,100092.61
2018-06-13T09:30:43.675Z,100083.14
2018-06-13T09:33:46.571Z,100093.00
2018-06-13T09:36:50.340Z,100086.48
2018-06-13T09:39:53.242Z,100094.21
2018-06-13T09:42:56.185Z,100093.00
2018-06-13T09:46:03.400Z,100100.64
2018-06-13T09:49:02.146Z,100097.54
2018-06-13T09:52:05.093Z,100096.67
2018-06-13T09:55:08.045Z,100092.23
2018-06-13T09:58:10.965Z,100089.37
2018-06-13T10:01:19.565Z,100085.64
2018-06-13T10:04:22.529Z,100088.33
2018-06-13T10:07:25.450Z,100088.73
2018-06-13T10:10:28.424Z,100094.50
2018-06-13T10:13:31.336Z,100091.27
2018-06-13T10:16:34.246Z,100088.55
2018-06-13T10:19:37.180Z,100085.77
2018-06-13T10:22:40.104Z,100094.97
2018-06-13T10:25:43.060Z,100093.03
2018-06-13T10:28:46.023Z,100098.08
2018-06-13T10:31:48.913Z,100095.77
2018-06-13T10:34:51.821Z,100100.61
2018-06-13T10:37:54.767Z,100090.44
2018-06-13T10:40:57.700Z,100100.02
2018-06-13T10:44:00.608Z,100094.30
2018-06-13T10:47:03.585Z,100095.72
2018-06-13T10:50:06.487Z,100098.00
2018-06-13T10:53:09.410Z,100094.87
2018-06-13T10:56:12.359Z,100095.50
2018-06-13T10:59:15.292Z,100089.97
2018-06-13T11:02:18.236Z,100093.91
2018-06-13T11:05:21.145Z,100094.30
2018-06-13T11:08:24.061Z,100101.29
2018-06-13T11:11:27.303Z,100102.79
2018-06-13T11:14:30.255Z,100103.46
2018-06-13T11:17:33.258Z,100095.80
2018-06-13T11:20:36.315Z,100108.36
2018-06-13T11:23:39.270Z,100113.25
2018-06-13T11:26:42.283Z,100112.76
2018-06-13T11:29:45.185Z,100112.55
2018-06-13T11:32:48.111Z,100111.73
2018-06-13T11:35:51.033Z,100109.80
2018-06-13T11:38:53.957Z,100110.73
2018-06-13T11:41:56.839Z,100108.13
2018-06-13T11:44:59.734Z,100109.93
2018-06-13T11:48:02.673Z,100114.08
2018-06-13T11:51:05.653Z,100109.82
2018-06-13T11:54:08.584Z,100111.15
2018-06-13T11:57:11.544Z,100108.03
2018-06-13T12:00:14.477Z,100113.92
2018-06-13T12:03:17.425Z,100111.39
2018-06-13T12:06:20.470Z,100103.31
2018-06-13T12:09:23.430Z,100100.52
2018-06-13T12:12:26.354Z,100100.71
2018-06-13T12:15:29.260Z,100107.84
2018-06-13T12:18:32.306Z,100105.97
2018-06-13T12:21:35.202Z,100093.94
2018-06-13T12:24:38.079Z,100095.06
2018-06-13T12:27:40.997Z,100086.94
2018-06-13T12:30:43.932Z,100095.27
2018-06-13T12:33:46.839Z,100103.75
2018-06-13T12:36:50.559Z,100105.30
2018-06-13T12:39:53.481Z,100096.76
2018-06-13T12:42:56.396Z,100110.59
2018-06-13T12:45:59.313Z,100100.63
2018-06-13T12:49:02.209Z,100098.61
2018-06-13T12:52:05.401Z,100098.31
2018-06-13T12:55:10.085Z,100101.98
2018-06-13T12:58:13.041Z,100100.83
2018-06-13T13:01:15.964Z,100109.65
2018-06-13T13:04:18.942Z,100110.04
2018-06-13T13:07:21.861Z,100103.45
2018-06-13T13:10:25.041Z,100097.70
2018-06-13T13:13:27.948Z,100095.30
2018-06-13T13:16:30.949Z,100098.20
2018-06-13T13:19:33.896Z,100092.41
2018-06-13T13:22:38.025Z,100091.47
2018-06-13T13:25:43.659Z,100097.74
2018-06-13T13:28:46.579Z,100097.86
2018-06-13T13:31:49.458Z,100102.45
2018-06-13T13:34:54.640Z,100101.59
2018-06-13T13:38:01.025Z,100099.31
2018-06-13T13:41:09.753Z,100092.56
2018-06-13T13:44:12.881Z,100097.06
2018-06-13T13:47:15.847Z,100101.25
2018-06-13T13:50:18.765Z,100096.52
2018-06-13T13:53:21.676Z,100100.11
2018-06-13T13:56:24.660Z,100097.02
2018-06-13T13:59:27.553Z,100100.30
2018-06-13T14:02:30.604Z,100103.12
2018-06-13T14:05:36.271Z,100099.77
2018-06-13T14:08:41.451Z,100102.48
2018-06-13T14:11:47.243Z,100093.16
2018-06-13T14:14:50.270Z,100096.72
2018-06-13T14:17:53.247Z,100086.53
2018-06-13T14:20:56.241Z,100086.19
2018-06-13T14:23:59.205Z,100085.61
2018-06-13T14:27:02.135Z,100078.52
2018-06-13T14:30:05.145Z,100085.77
2018-06-13T14:33:08.103Z,100094.66
2018-06-13T14:36:11.076Z,100100.75
2018-06-13T14:39:14.025Z,100088.89
2018-06-13T14:42:16.984Z,100095.00
2018-06-13T14:45:19.925Z,100093.02
2018-06-13T14:48:22.824Z,100093.73
2018-06-13T14:51:25.856Z,100092.35
2018-06-13T14:54:28.750Z,100090.50
2018-06-13T14:57:31.657Z,100095.81
2018-06-13T15:00:34.565Z,100099.73
2018-06-13T15:03:38.422Z,100086.49
2018-06-13T15:06:41.352Z,100085.83
2018-06-13T15:09:44.235Z,100086.95
2018-06-13T15:12:47.234Z,100097.84
2018-06-13T15:15:50.244Z,100092.95
2018-06-13T15:18:53.304Z,100091.12
2018-06-13T15:21:56.227Z,100083.77
2018-06-13T15:24:59.185Z,100088.72
2018-06-13T15:28:02.108Z,100085.69
2018-06-13T15:31:05.085Z,100090.09
2018-06-13T15:34:08.029Z,100093.17
2018-06-13T15:37:10.926Z,100094.53
2018-06-13T15:40:13.818Z,100088.20
2018-06-13T15:43:17.096Z,100089.13
2018-06-13T15:46:20.005Z,100092.73
2018-06-13T15:49:22.917Z,100091.69
2018-06-13T15:52:25.928Z,100096.41
2018-06-13T15:55:28.871Z,100101.80
2018-06-13T15:58:31.766Z,100104.16
2018-06-13T16:01:34.713Z,100093.50
2018-06-13T16:04:37.588Z,100099.27
2018-06-13T16:07:40.648Z,100107.99
2018-06-13T16:10:43.574Z,100102.70
2018-06-13T16:13:46.497Z,100107.22
2018-06-13T16:16:49.390Z,100110.98
2018-06-13T16:19:52.357Z,100115.61
2018-06-13T16:22:55.296Z,100122.91
2018-06-13T16:25:58.280Z,100125.59
2018-06-13T16:29:01.230Z,100132.88
2018-06-13T16:32:04.180Z,100134.22
2018-06-13T16:35:07.118Z,100129.04
2018-06-13T16:38:10.044Z,100131.16
2018-06-13T16:41:13.831Z,100134.14
2018-06-13T16:44:17.195Z,100128.17
2018-06-13T16:47:22.238Z,100128.95
2018-06-13T16:50:42.597Z,100129.93
2018-06-13T16:54:02.771Z,100138.57
2018-06-13T16:57:06.772Z,100134.34
2018-06-13T17:00:10.148Z,100143.27
2018-06-13T17:03:13.508Z,100144.87
2018-06-13T17:06:17.948Z,100147.86
2018-06-13T17:09:21.258Z,100153.91
2018-06-13T17:12:24.313Z,100149.51
2018-06-13T17:15:28.600Z,100152.19
2018-06-13T17:18:31.840Z,100151.89
2018-06-13T17:21:35.310Z,100152.45
2018-06-13T17:24:39.045Z,100159.30
2018-06-13T17:27:42.533Z,100167.22
2018-06-13T17:30:45.435Z,100168.73
2018-06-13T17:33:48.358Z,100173.83
2018-06-13T17:36:51.262Z,100177.47
2018-06-13T17:39:54.189Z,100178.88
2018-06-13T17:42:57.098Z,100180.86
2018-06-13T17:46:00.017Z,100187.18
2018-06-13T17:49:02.921Z,100192.83
2018-06-13T17:52:05.949Z,100189.95
2018-06-13T17:55:08.834Z,100190.54
2018-06-13T17:58:11.765Z,100196.03
2018-06-13T18:01:14.688Z,100197.85
2018-06-13T18:04:17.738Z,100198.09
2018-06-13T18:07:20.668Z,100202.63
2018-06-13T18:10:23.613Z,100198.80
2018-06-13T18:13:26.517Z,100200.85
2018-06-13T18:16:29.473Z,100199.11
2018-06-13T18:19:32.381Z,100194.45
2018-06-13T18:22:35.551Z,100189.31
2018-06-13T18:25:38.457Z,100191.17
2018-06-13T18:28:41.433Z,100186.83
2018-06-13T18:31:44.345Z,100186.08
2018-06-13T18:34:47.234Z,100181.18
2018-06-13T18:37:50.171Z,100182.09
2018-06-13T18:40:53.119Z,100180.39
2018-06-13T18:43:56.036Z,100191.09
2018-06-13T18:46:58.938Z,100185.16
2018-06-13T18:50:01.891Z,100185.16
2018-06-13T18:53:04.864Z,100179.79
2018-06-13T18:56:07.761Z,100174.02
2018-06-13T18:59:10.675Z,100167.27
2018-06-13T19:02:13.613Z,100174.11
2018-06-13T19:05:16.626Z,100176.94
2018-06-13T19:08:19.557Z,100176.07
2018-06-13T19:11:22.465Z,100177.89
2018-06-13T19:14:25.415Z,100172.00
2018-06-13T19:17:28.351Z,100171.52
2018-06-13T19:20:31.254Z,100171.98
2018-06-13T19:23:34.228Z,100171.16
2018-06-13T19:26:37.168Z,100168.44
2018-06-13T19:29:40.082Z,100172.50
2018-06-13T19:32:42.985Z,100176.31
2018-06-13T19:35:45.921Z,100184.36
2018-06-13T19:38:48.844Z,100189.56
2018-06-13T19:41:51.778Z,100187.08
2018-06-13T19:44:54.811Z,100183.84
2018-06-13T19:48:03.330Z,100178.80
2018-06-13T19:51:06.282Z,100186.78
2018-06-13T19:54:14.882Z,100191.09
2018-06-13T19:57:17.787Z,100192.35
2018-06-13T20:00:21.009Z,100199.79
2018-06-13T20:03:29.458Z,100211.94
2018-06-13T20:06:34.762Z,100199.86
2018-06-13T20:09:37.651Z,100207.98
2018-06-13T20:12:46.466Z,100209.70
2018-06-13T20:15:54.939Z,100205.58
2018-06-13T20:19:03.456Z,100213.78
2018-06-13T20:22:06.399Z,100220.56
2018-06-13T20:25:14.941Z,100227.59
2018-06-13T20:28:23.744Z,100224.30
2018-06-13T20:31:28.702Z,100240.93
2018-06-13T20:34:31.556Z,100232.66
2018-06-13T20:37:34.479Z,100236.94
2018-06-13T20:40:37.427Z,100246.26
2018-06-13T20:43:40.661Z,100242.52
2018-06-13T20:46:43.561Z,100245.20
2018-06-13T20:49:46.472Z,100246.58
2018-06-13T20:52:49.354Z,100248.05
2018-06-13T20:55:52.268Z,100240.31
2018-06-13T20:58:55.184Z,100238.78
2018-06-13T21:01:58.112Z,100235.63
2018-06-13T21:05:01.015Z,100244.69
2018-06-13T21:08:04.000Z,100248.49
2018-06-13T21:11:06.891Z,100243.20
2018-06-13T21:14:09.826Z,100233.28
2018-06-13T21:17:12.717Z,100230.92
2018-06-13T21:20:15.662Z,100221.73
2018-06-13T21:23:18.639Z,100227.21
2018-06-13T21:26:21.573Z,100232.88
2018-06-13T21:29:24.477Z,100231.28
2018-06-13T21:32:27.397Z,100234.31
2018-06-13T21:35:30.956Z,100231.39
2018-06-13T21:38:37.279Z,100230.52
2018-06-13T21:41:41.067Z,100233.39
2018-06-13T21:44:44.481Z,100223.41
2018-06-13T21:47:47.426Z,100217.38
2018-06-13T21:50:50.641Z,100210.92
2018-06-13T21:53:54.637Z,100200.36
2018-06-13T21:56:58.201Z,100195.54
2018-06-13T22:00:01.465Z,100195.53
2018-06-13T22:03:04.817Z,100200.67
2018-06-13T22:06:07.923Z,100195.38
2018-06-13T22:09:11.758Z,100192.46
2018-06-13T22:12:16.190Z,100194.92
2018-06-13T22:15:23.681Z,100189.73
2018-06-13T22:18:27.011Z,100192.92
2018-06-13T22:21:29.950Z,100201.91
2018-06-13T22:24:33.528Z,100204.87
2018-06-13T22:27:37.073Z,100203.59
2018-06-13T22:30:41.067Z,100197.11
2018-06-13T22:33:44.210Z,100203.56
2018-06-13T22:36:48.683Z,100200.38
2018-06-13T22:39:52.084Z,100204.52
2018-06-13T22:42:55.197Z,100209.45
2018-06-13T22:45:58.402Z,100208.03
2018-06-13T22:49:01.743Z,100208.88
2018-06-13T22:52:04.687Z,100203.25
2018-06-13T22:55:08.345Z,100197.39
2018-06-13T22:58:11.848Z,100199.14
2018-06-13T23:01:14.771Z,100187.33
2018-06-13T23:04:18.713Z,100181.75
2018-06-13T23:07:22.398Z,100191.44
2018-06-13T23:10:25.603Z,100186.97
2018-06-13T23:13:28.632Z,100200.45
2018-06-13T23:16:32.020Z,100205.85
2018-06-13T23:19:35.713Z,100199.14
2018-06-13T23:22:38.775Z,100199.59
2018-06-13T23:25:43.179Z,100195.47
2018-06-13T23:28:47.113Z,100190.66
2018-06-13T23:31:51.568Z,100187.37
2018-06-13T23:35:01.689Z,100196.01
2018-06-13T23:38:06.122Z,100196.78
2018-06-13T23:41:09.986Z,100200.70
2018-06-13T23:44:13.198Z,100195.00
2018-06-13T23:47:16.302Z,100196.42
2018-06-13T23:50:19.659Z,100191.84
2018-06-13T23:53:23.021Z,100191.94
2018-06-13T23:56:27.307Z,100194.66
2018-06-13T23:59:30.289Z,100190.33
